Time;durP1;ratioP1;P1;durP2;ratioP2;P2;SDS_P1;SDS_P2;PMS_P1;PMS_P2;Temp;Humidity;BMP_temperature;BMP_pressure;BME280_temperature;BME280_humidity;BME280_pressure;Samples;Min_cycle;Max_cycle;Signal;HPM_P1;HPM_P2
2023/07/17 00:00:48;;;;;;;3.57;3.17;;;27.10;47.80;;;;;;5055347;28;20322;-67
2023/07/17 00:03:13;;;;;;;3.63;3.03;;;27.10;47.80;;;;;;5054908;28;20179;-67
2023/07/17 00:05:39;;;;;;;3.67;2.80;;;27.10;47.80;;;;;;5055175;28;20636;-67
2023/07/17 00:08:05;;;;;;;4.63;3.23;;;27.10;47.90;;;;;;5053687;28;20285;-67
2023/07/17 00:10:31;;;;;;;4.60;3.27;;;27.10;47.90;;;;;;5054978;28;20637;-67
2023/07/17 00:12:56;;;;;;;3.70;2.93;;;27.10;47.90;;;;;;5055118;28;20449;-67
2023/07/17 00:15:22;;;;;;;3.20;2.90;;;27.10;47.90;;;;;;5054895;28;20238;-67
2023/07/17 00:17:48;;;;;;;3.83;3.03;;;27.10;47.90;;;;;;5054943;28;20199;-67
2023/07/17 00:20:13;;;;;;;6.90;3.40;;;27.10;47.90;;;;;;5054775;28;20266;-67
2023/07/17 00:22:40;;;;;;;4.40;3.43;;;27.10;47.90;;;;;;5054740;28;20183;-67
2023/07/17 00:25:06;;;;;;;3.90;3.30;;;27.10;48.00;;;;;;5054426;28;20175;-67
2023/07/17 00:27:35;;;;;;;5.10;3.50;;;27.10;48.00;;;;;;5056685;28;20849;-67
2023/07/17 00:30:01;;;;;;;3.47;2.87;;;27.10;48.00;;;;;;5058150;28;20784;-67
2023/07/17 00:32:26;;;;;;;3.57;3.00;;;27.10;48.00;;;;;;5057915;28;20464;-67
2023/07/17 00:34:52;;;;;;;3.20;2.80;;;27.10;48.00;;;;;;5057971;28;20425;-67
2023/07/17 00:37:17;;;;;;;4.80;3.30;;;27.10;48.00;;;;;;5058591;28;20194;-67
2023/07/17 00:39:43;;;;;;;3.40;3.10;;;27.10;48.10;;;;;;5058069;28;20640;-66
2023/07/17 00:42:09;;;;;;;4.67;3.23;;;27.10;48.00;;;;;;5058259;28;20179;-67
2023/07/17 00:44:38;;;;;;;4.27;3.10;;;27.10;48.00;;;;;;5058449;28;20269;-67
2023/07/17 00:47:05;;;;;;;4.33;3.30;;;27.00;48.00;;;;;;5058009;28;20174;-67
2023/07/17 00:49:31;;;;;;;3.47;3.17;;;27.10;48.00;;;;;;5057739;28;20973;-66
2023/07/17 00:51:59;;;;;;;5.20;3.27;;;27.10;48.00;;;;;;5057577;28;20461;-67
2023/07/17 00:54:26;;;;;;;3.77;3.47;;;27.10;48.00;;;;;;5057775;28;20405;-67
2023/07/17 00:56:53;;;;;;;4.40;3.17;;;27.10;48.00;;;;;;5057770;28;20509;-67
2023/07/17 00:59:19;;;;;;;5.93;3.57;;;27.00;48.00;;;;;;5057619;28;20424;-67
2023/07/17 01:01:46;;;;;;;5.27;3.23;;;27.10;48.00;;;;;;5057558;28;20792;-67
2023/07/17 01:04:12;;;;;;;4.00;2.90;;;27.10;48.00;;;;;;5056998;28;20413;-67
2023/07/17 01:06:40;;;;;;;4.57;3.20;;;27.00;48.00;;;;;;5057279;28;20433;-66
2023/07/17 01:09:08;;;;;;;3.57;3.27;;;27.00;48.00;;;;;;5056798;28;20194;-67
2023/07/17 01:11:34;;;;;;;4.00;3.47;;;27.00;48.00;;;;;;5057509;28;20534;-67
2023/07/17 01:14:00;;;;;;;5.13;3.23;;;27.00;48.70;;;;;;5057659;28;20402;-67
2023/07/17 01:16:25;;;;;;;3.83;3.20;;;27.00;48.10;;;;;;5057285;28;20420;-67
2023/07/17 01:18:51;;;;;;;5.77;3.87;;;27.00;48.20;;;;;;5057701;28;20201;-67
2023/07/17 01:21:19;;;;;;;4.53;2.90;;;27.00;48.20;;;;;;5057730;28;20652;-67
2023/07/17 01:23:45;;;;;;;4.40;3.50;;;27.00;48.30;;;;;;5057219;28;20551;-67
2023/07/17 01:26:15;;;;;;;5.37;3.83;;;27.00;48.30;;;;;;5057301;28;20409;-69
2023/07/17 01:28:41;;;;;;;4.77;3.50;;;27.00;48.30;;;;;;5057841;28;20198;-67
2023/07/17 01:31:07;;;;;;;4.10;3.43;;;27.00;48.40;;;;;;5057696;28;20436;-67
2023/07/17 01:33:33;;;;;;;4.10;3.70;;;27.00;48.40;;;;;;5058032;28;20413;-67
2023/07/17 01:36:00;;;;;;;4.40;3.80;;;27.00;48.40;;;;;;5049821;28;20459;-68
2023/07/17 01:38:26;;;;;;;3.70;3.40;;;27.00;48.40;;;;;;5056111;28;20445;-67
2023/07/17 01:40:52;;;;;;;4.70;3.63;;;27.00;48.40;;;;;;5057110;28;20417;-67
2023/07/17 01:43:18;;;;;;;4.23;3.20;;;27.00;48.40;;;;;;5056656;28;20182;-67
2023/07/17 01:45:44;;;;;;;4.20;3.70;;;27.00;48.40;;;;;;5057534;28;20413;-67
2023/07/17 01:48:09;;;;;;;5.43;3.93;;;27.00;48.50;;;;;;5057650;28;20233;-67
2023/07/17 01:50:35;;;;;;;3.67;2.90;;;27.00;48.40;;;;;;5057333;28;20191;-67
2023/07/17 01:53:01;;;;;;;3.80;3.50;;;27.00;48.40;;;;;;5057301;28;20259;-67
2023/07/17 01:55:26;;;;;;;4.53;3.53;;;27.00;48.40;;;;;;5057248;28;20179;-67
2023/07/17 01:57:52;;;;;;;4.03;3.30;;;27.00;48.40;;;;;;5057749;28;20209;-67
2023/07/17 02:00:18;;;;;;;4.87;3.40;;;27.00;48.40;;;;;;5057499;28;20217;-66
2023/07/17 02:02:43;;;;;;;6.70;3.50;;;27.00;48.40;;;;;;5057855;28;20178;-67
2023/07/17 02:05:09;;;;;;;4.67;4.07;;;27.00;48.30;;;;;;5057329;28;20187;-67
2023/07/17 02:07:35;;;;;;;5.37;3.43;;;27.00;48.30;;;;;;5057294;28;20341;-67
2023/07/17 02:10:00;;;;;;;3.43;3.13;;;27.00;48.30;;;;;;5057270;28;20186;-66
2023/07/17 02:12:26;;;;;;;4.77;4.27;;;27.00;48.30;;;;;;5057285;28;20205;-67
2023/07/17 02:14:51;;;;;;;5.50;3.57;;;27.00;48.90;;;;;;5057316;28;20179;-67
2023/07/17 02:17:17;;;;;;;4.50;2.97;;;27.00;48.30;;;;;;5057568;28;20194;-67
2023/07/17 02:19:42;;;;;;;4.33;3.03;;;26.90;48.80;;;;;;5057242;28;20233;-66
2023/07/17 02:22:08;;;;;;;5.13;3.10;;;27.00;48.30;;;;;;5057093;28;20171;-67
2023/07/17 02:24:34;;;;;;;5.37;3.50;;;27.00;48.30;;;;;;5057189;28;20182;-67
2023/07/17 02:27:01;;;;;;;3.90;3.37;;;26.90;48.30;;;;;;5057073;28;20243;-67
2023/07/17 02:29:26;;;;;;;3.30;2.87;;;26.90;48.40;;;;;;5056761;28;20171;-67
2023/07/17 02:31:52;;;;;;;4.40;3.47;;;26.90;48.40;;;;;;5056668;28;20904;-67
2023/07/17 02:34:18;;;;;;;4.20;3.20;;;26.90;48.50;;;;;;5057421;28;20186;-67
2023/07/17 02:36:43;;;;;;;3.97;3.23;;;26.90;48.50;;;;;;5056640;28;20178;-67
2023/07/17 02:39:09;;;;;;;4.43;3.30;;;26.90;48.50;;;;;;5057203;28;20690;-67
2023/07/17 02:41:34;;;;;;;6.47;3.70;;;26.90;48.60;;;;;;5056543;28;20178;-67
2023/07/17 02:44:00;;;;;;;4.23;2.80;;;26.90;48.60;;;;;;5044055;28;20262;-67
2023/07/17 02:46:26;;;;;;;4.87;3.70;;;26.90;48.60;;;;;;5036097;28;20241;-67
2023/07/17 02:48:52;;;;;;;4.30;2.80;;;26.90;49.20;;;;;;5034879;28;20227;-67
2023/07/17 02:51:17;;;;;;;5.00;3.60;;;26.90;48.60;;;;;;5035451;28;20199;-67
2023/07/17 02:53:43;;;;;;;3.73;3.07;;;26.90;48.70;;;;;;5036569;28;20432;-67
2023/07/17 02:56:08;;;;;;;4.80;3.77;;;26.90;48.60;;;;;;5036321;28;20172;-67
2023/07/17 02:58:39;;;;;;;5.13;3.50;;;26.90;48.70;;;;;;5036609;28;20218;-67
2023/07/17 03:01:06;;;;;;;4.00;3.60;;;26.90;48.60;;;;;;5036407;28;20169;-67
2023/07/17 03:03:31;;;;;;;4.43;3.60;;;26.90;48.60;;;;;;5035751;28;20406;-67
2023/07/17 03:05:57;;;;;;;3.50;3.03;;;26.90;48.60;;;;;;5035966;28;20426;-66
2023/07/17 03:08:22;;;;;;;5.57;3.50;;;26.90;48.60;;;;;;5035208;28;20199;-67
2023/07/17 03:10:48;;;;;;;5.27;3.30;;;26.90;48.60;;;;;;5035738;28;20194;-67
2023/07/17 03:13:13;;;;;;;3.40;3.07;;;26.90;48.60;;;;;;5034824;28;20206;-67
2023/07/17 03:15:39;;;;;;;5.53;3.50;;;26.90;48.60;;;;;;5035552;28;20314;-67
2023/07/17 03:18:05;;;;;;;4.63;3.30;;;26.90;48.60;;;;;;5034872;28;20550;-67
2023/07/17 03:20:30;;;;;;;4.57;3.50;;;26.90;48.60;;;;;;5035127;28;20199;-67
2023/07/17 03:22:56;;;;;;;3.87;3.50;;;26.90;48.70;;;;;;5035517;28;20274;-67
2023/07/17 03:25:21;;;;;;;4.00;3.17;;;26.90;48.60;;;;;;5034885;28;20184;-67
2023/07/17 03:27:47;;;;;;;4.63;3.00;;;26.90;48.60;;;;;;5035395;28;20657;-67
2023/07/17 03:30:13;;;;;;;3.73;3.43;;;26.90;48.60;;;;;;5035296;28;20176;-67
2023/07/17 03:32:38;;;;;;;3.60;3.13;;;26.90;48.60;;;;;;5035697;28;20287;-67
2023/07/17 03:35:05;;;;;;;6.30;3.73;;;26.80;48.50;;;;;;5035551;28;20176;-67
2023/07/17 03:37:30;;;;;;;4.37;3.47;;;26.80;48.50;;;;;;5035185;28;20576;-67
2023/07/17 03:39:56;;;;;;;3.80;2.97;;;26.90;48.60;;;;;;5035588;28;20402;-67
2023/07/17 03:42:22;;;;;;;3.30;3.00;;;26.80;48.50;;;;;;5035095;28;20191;-67
2023/07/17 03:44:47;;;;;;;6.33;3.53;;;26.80;48.50;;;;;;5035528;28;20181;-67
2023/07/17 03:47:13;;;;;;;4.17;3.77;;;26.90;48.60;;;;;;5033704;28;20203;-67
2023/07/17 03:49:39;;;;;;;4.80;3.53;;;26.80;48.50;;;;;;5035095;28;20196;-67
2023/07/17 03:52:05;;;;;;;4.70;3.87;;;26.80;48.50;;;;;;5035193;28;20207;-67
2023/07/17 03:54:30;;;;;;;3.80;3.40;;;26.80;48.60;;;;;;5035091;28;20378;-67
2023/07/17 03:56:56;;;;;;;5.90;3.83;;;26.80;48.60;;;;;;5035570;28;20533;-67
2023/07/17 03:59:24;;;;;;;3.83;3.43;;;26.80;48.60;;;;;;5035328;28;20188;-67
2023/07/17 04:01:50;;;;;;;4.40;3.70;;;26.80;48.60;;;;;;5037831;28;20190;-67
2023/07/17 04:04:15;;;;;;;4.27;3.50;;;26.80;48.70;;;;;;5038835;28;20919;-67
2023/07/17 04:06:41;;;;;;;3.73;3.17;;;26.80;48.70;;;;;;5039613;28;20424;-67
2023/07/17 04:09:07;;;;;;;4.63;4.23;;;26.80;48.70;;;;;;5038547;28;20207;-67
2023/07/17 04:11:32;;;;;;;4.77;3.70;;;26.80;48.70;;;;;;5038788;28;20196;-67
2023/07/17 04:13:58;;;;;;;4.23;3.17;;;26.80;48.80;;;;;;5037988;28;20227;-67
2023/07/17 04:16:26;;;;;;;8.50;3.50;;;26.80;48.80;;;;;;5038876;28;20255;-67
2023/07/17 04:18:52;;;;;;;5.70;3.53;;;26.80;48.80;;;;;;5038735;28;20196;-67
2023/07/17 04:21:17;;;;;;;4.80;3.83;;;26.80;48.90;;;;;;5038825;28;20501;-67
2023/07/17 04:23:43;;;;;;;3.63;3.33;;;26.80;48.90;;;;;;5038563;28;20176;-67
2023/07/17 04:26:09;;;;;;;5.53;3.73;;;26.80;48.90;;;;;;5038566;28;20186;-67
2023/07/17 04:28:35;;;;;;;4.10;3.30;;;26.80;49.00;;;;;;5037485;28;20208;-67
2023/07/17 04:31:02;;;;;;;4.57;3.80;;;26.80;49.00;;;;;;5037206;28;20629;-67
2023/07/17 04:33:28;;;;;;;6.40;3.93;;;26.80;49.00;;;;;;5038427;28;20398;-67
2023/07/17 04:35:54;;;;;;;4.33;3.93;;;26.80;49.00;;;;;;5038254;28;20554;-67
2023/07/17 04:38:19;;;;;;;5.90;3.90;;;26.70;49.00;;;;;;5038101;28;20218;-67
2023/07/17 04:40:45;;;;;;;6.70;4.10;;;26.70;49.00;;;;;;5038555;28;20203;-67
2023/07/17 04:43:10;;;;;;;4.90;4.10;;;26.70;49.10;;;;;;5038198;28;20180;-67
2023/07/17 04:45:43;;;;;;;8.00;3.73;;;26.80;49.10;;;;;;5038748;28;20255;-67
2023/07/17 04:48:09;;;;;;;5.67;4.00;;;26.80;49.20;;;;;;5038436;28;20202;-67
2023/07/17 04:50:35;;;;;;;5.33;3.47;;;26.80;49.20;;;;;;5038424;28;20489;-67
2023/07/17 04:53:00;;;;;;;5.53;3.40;;;26.80;49.20;;;;;;5038905;28;20221;-67
2023/07/17 04:55:26;;;;;;;6.70;3.70;;;26.80;49.30;;;;;;5038094;28;20198;-67
2023/07/17 04:57:51;;;;;;;4.40;3.03;;;26.80;49.30;;;;;;5037390;28;20278;-65
2023/07/17 05:00:17;;;;;;;4.77;3.90;;;26.80;49.30;;;;;;5037275;28;20645;-66
2023/07/17 05:02:43;;;;;;;4.73;3.77;;;26.80;49.30;;;;;;5037056;28;20180;-66
2023/07/17 05:05:09;;;;;;;4.60;3.70;;;26.80;49.30;;;;;;5037616;28;20410;-67
2023/07/17 05:07:35;;;;;;;4.70;3.53;;;26.80;49.30;;;;;;5036820;28;20625;-66
2023/07/17 05:10:00;;;;;;;4.20;2.90;;;26.80;49.30;;;;;;5035426;28;20521;-66
2023/07/17 05:12:26;;;;;;;5.37;3.63;;;26.80;49.30;;;;;;5035271;28;20203;-67
2023/07/17 05:14:51;;;;;;;7.00;3.40;;;26.80;49.30;;;;;;5036409;28;20679;-67
2023/07/17 05:17:17;;;;;;;5.43;3.50;;;26.80;49.30;;;;;;5036186;28;20537;-67
2023/07/17 05:19:43;;;;;;;5.87;3.83;;;26.80;49.30;;;;;;5035428;28;20184;-67
2023/07/17 05:22:08;;;;;;;6.30;3.30;;;26.80;49.40;;;;;;5035892;28;20172;-68
2023/07/17 05:24:34;;;;;;;3.90;3.27;;;26.80;49.40;;;;;;5034147;28;20190;-69
2023/07/17 05:27:00;;;;;;;4.93;3.00;;;26.80;49.30;;;;;;5033882;28;20172;-68
2023/07/17 05:29:25;;;;;;;4.43;3.30;;;26.90;49.40;;;;;;5033295;28;20179;-68
2023/07/17 05:31:51;;;;;;;4.13;3.50;;;26.80;49.30;;;;;;5032641;28;20232;-67
2023/07/17 05:34:17;;;;;;;6.47;4.20;;;26.90;49.30;;;;;;5034112;28;20167;-68
2023/07/17 05:36:43;;;;;;;4.97;3.50;;;26.90;49.20;;;;;;5033882;28;20199;-68
2023/07/17 05:39:08;;;;;;;7.03;3.60;;;26.90;49.10;;;;;;5033945;28;20450;-69
2023/07/17 05:41:34;;;;;;;5.40;3.70;;;26.90;49.00;;;;;;5033903;28;20175;-68
2023/07/17 05:44:00;;;;;;;4.30;3.90;;;26.90;49.00;;;;;;5033746;28;20202;-67
2023/07/17 05:46:25;;;;;;;4.60;3.50;;;26.90;49.00;;;;;;5033549;28;20217;-69
2023/07/17 05:48:51;;;;;;;7.20;3.87;;;26.90;49.00;;;;;;5033459;28;20241;-68
2023/07/17 05:51:16;;;;;;;4.10;3.40;;;27.00;49.00;;;;;;5033616;28;20531;-68
2023/07/17 05:53:42;;;;;;;3.60;3.30;;;27.00;49.00;;;;;;5033925;28;20220;-67
2023/07/17 05:56:07;;;;;;;5.00;3.87;;;27.00;49.00;;;;;;5033751;28;20179;-68
2023/07/17 05:58:33;;;;;;;4.80;3.60;;;27.00;49.00;;;;;;5033475;28;20195;-68
2023/07/17 06:00:59;;;;;;;8.13;3.30;;;27.00;49.00;;;;;;5033795;28;20331;-68
2023/07/17 06:03:25;;;;;;;7.53;3.70;;;27.10;49.10;;;;;;5033839;28;20180;-68
2023/07/17 06:05:51;;;;;;;4.97;3.57;;;27.00;49.00;;;;;;5033873;28;20763;-68
2023/07/17 06:08:17;;;;;;;4.90;3.40;;;27.10;49.10;;;;;;5033442;28;20809;-68
2023/07/17 06:10:46;;;;;;;5.00;3.57;;;27.10;49.10;;;;;;5033329;28;20418;-69
2023/07/17 06:13:12;;;;;;;3.60;3.07;;;27.10;49.10;;;;;;5033242;28;20199;-68
2023/07/17 06:15:39;;;;;;;7.37;3.03;;;27.10;49.10;;;;;;5033428;28;20521;-68
2023/07/17 06:18:04;;;;;;;4.53;3.77;;;27.10;49.10;;;;;;5033163;28;20484;-69
2023/07/17 06:20:30;;;;;;;3.97;3.20;;;27.10;49.10;;;;;;5033317;28;20445;-68
2023/07/17 06:22:55;;;;;;;3.33;3.03;;;27.10;49.10;;;;;;5033455;28;20271;-68
2023/07/17 06:25:21;;;;;;;4.13;3.07;;;27.20;49.20;;;;;;5033470;28;20243;-68
2023/07/17 06:27:47;;;;;;;5.23;3.50;;;27.10;49.10;;;;;;5032857;28;20576;-69
2023/07/17 06:30:13;;;;;;;5.37;3.60;;;27.20;49.10;;;;;;5032893;28;20186;-69
2023/07/17 06:32:39;;;;;;;3.30;2.93;;;27.20;49.10;;;;;;5032835;28;20450;-68
2023/07/17 06:35:07;;;;;;;4.30;3.30;;;27.20;49.10;;;;;;5033175;28;20698;-69
2023/07/17 06:37:33;;;;;;;4.57;3.60;;;27.20;49.20;;;;;;5033109;28;20196;-69
2023/07/17 06:39:59;;;;;;;3.40;3.10;;;27.20;49.20;;;;;;5033038;28;20414;-67
2023/07/17 06:42:24;;;;;;;4.20;3.13;;;27.20;49.10;;;;;;5032960;28;20551;-68
2023/07/17 06:44:50;;;;;;;4.80;3.53;;;27.30;49.20;;;;;;5032917;28;20183;-68
2023/07/17 06:47:15;;;;;;;3.63;3.23;;;27.20;49.10;;;;;;5033088;28;20677;-67
2023/07/17 06:49:41;;;;;;;3.73;2.90;;;27.30;49.20;;;;;;5032585;28;20198;-65
2023/07/17 06:52:07;;;;;;;4.47;3.50;;;27.30;49.20;;;;;;5032728;28;20294;-66
2023/07/17 06:54:34;;;;;;;3.77;3.30;;;27.30;49.20;;;;;;5033075;28;20227;-66
2023/07/17 06:56:59;;;;;;;4.50;2.90;;;27.30;49.20;;;;;;5032975;28;20841;-66
2023/07/17 06:59:28;;;;;;;3.10;2.50;;;27.30;49.20;;;;;;5032878;28;20175;-66
2023/07/17 07:01:54;;;;;;;3.20;2.70;;;27.30;49.20;;;;;;5032541;28;20171;-67
2023/07/17 07:04:20;;;;;;;3.30;3.00;;;27.30;49.20;;;;;;5031482;28;20792;-69
2023/07/17 07:06:45;;;;;;;2.80;2.37;;;27.30;49.20;;;;;;5032614;28;20206;-69
2023/07/17 07:09:11;;;;;;;4.10;2.90;;;27.30;49.20;;;;;;5032488;28;20196;-68
2023/07/17 07:11:37;;;;;;;3.20;2.90;;;27.30;49.20;;;;;;5032448;28;20214;-68
2023/07/17 07:14:02;;;;;;;4.70;3.47;;;27.30;49.20;;;;;;5032883;28;20172;-68
2023/07/17 07:16:28;;;;;;;5.57;3.20;;;27.40;49.20;;;;;;5032431;28;20226;-69
2023/07/17 07:18:53;;;;;;;3.90;2.83;;;27.30;49.20;;;;;;5033056;28;20688;-68
2023/07/17 07:21:19;;;;;;;5.20;2.90;;;27.40;49.30;;;;;;5032926;28;20629;-68
2023/07/17 07:23:45;;;;;;;4.43;3.33;;;27.40;49.30;;;;;;5033635;28;20175;-68
2023/07/17 07:26:10;;;;;;;3.77;2.67;;;27.40;49.20;;;;;;5031654;28;20175;-69
2023/07/17 07:28:36;;;;;;;3.27;2.90;;;27.40;49.20;;;;;;5032991;28;20194;-68
2023/07/17 07:31:02;;;;;;;2.97;2.67;;;27.40;49.30;;;;;;5033346;28;20175;-68
2023/07/17 07:33:28;;;;;;;3.60;2.77;;;27.40;49.30;;;;;;5033567;28;20217;-67
2023/07/17 07:35:53;;;;;;;3.70;2.70;;;27.40;49.20;;;;;;5034113;28;20694;-68
2023/07/17 07:38:19;;;;;;;3.90;2.90;;;27.40;49.20;;;;;;5037457;28;20430;-68
2023/07/17 07:40:45;;;;;;;3.47;2.90;;;27.40;49.20;;;;;;5037884;28;20222;-69
2023/07/17 07:43:11;;;;;;;3.17;2.87;;;27.40;49.20;;;;;;5038285;28;20181;-68
2023/07/17 07:45:36;;;;;;;2.90;2.57;;;27.40;49.20;;;;;;5037332;28;20414;-66
2023/07/17 07:48:02;;;;;;;3.63;3.07;;;27.40;49.20;;;;;;5037456;28;20191;-68
2023/07/17 07:50:27;;;;;;;3.30;2.87;;;27.40;49.20;;;;;;5037514;28;20249;-68
2023/07/17 07:52:55;;;;;;;3.23;2.93;;;27.40;49.30;;;;;;5037833;28;20199;-66
2023/07/17 07:55:21;;;;;;;5.37;2.90;;;27.40;49.20;;;;;;5037926;28;20171;-68
2023/07/17 07:57:47;;;;;;;2.77;2.47;;;27.40;49.20;;;;;;5037093;28;20437;-68
2023/07/17 08:00:14;;;;;;;3.90;3.00;;;27.50;49.30;;;;;;5036866;28;20410;-68
2023/07/17 08:02:39;;;;;;;3.20;2.63;;;27.40;49.20;;;;;;5037691;28;20466;-69
2023/07/17 08:05:05;;;;;;;3.67;3.27;;;27.50;49.30;;;;;;5036808;28;20414;-69
2023/07/17 08:07:31;;;;;;;3.90;3.23;;;27.50;49.20;;;;;;5036948;28;20213;-67
2023/07/17 08:09:56;;;;;;;3.60;3.10;;;27.40;49.10;;;;;;5037084;28;20171;-69
2023/07/17 08:12:22;;;;;;;3.53;3.23;;;27.40;49.00;;;;;;5036305;28;20196;-69
2023/07/17 08:14:49;;;;;;;4.70;3.50;;;27.50;49.00;;;;;;5036728;28;20199;-69
2023/07/17 08:17:15;;;;;;;6.63;4.10;;;27.40;48.90;;;;;;5038910;28;20251;-69
2023/07/17 08:19:40;;;;;;;6.00;3.67;;;27.40;48.70;;;;;;5038813;28;20910;-69
2023/07/17 08:22:06;;;;;;;6.20;3.83;;;27.50;48.70;;;;;;5039491;28;20171;-69
2023/07/17 08:24:32;;;;;;;5.00;4.40;;;27.50;48.70;;;;;;5039714;28;20193;-68
2023/07/17 08:26:57;;;;;;;5.30;3.80;;;27.50;48.70;;;;;;5039325;28;20186;-69
2023/07/17 08:29:23;;;;;;;5.27;3.77;;;27.40;48.50;;;;;;5038809;28;20205;-69
2023/07/17 08:31:48;;;;;;;5.00;3.67;;;27.40;48.50;;;;;;5038083;28;20196;-69
2023/07/17 08:34:16;;;;;;;6.43;4.20;;;27.40;48.40;;;;;;5038042;28;20242;-69
2023/07/17 08:36:42;;;;;;;7.63;4.03;;;27.50;48.40;;;;;;5038309;28;20179;-69
2023/07/17 08:39:07;;;;;;;3.93;3.60;;;27.40;48.30;;;;;;5038622;28;20434;-69
2023/07/17 08:41:35;;;;;;;4.40;4.00;;;27.40;48.20;;;;;;5038057;28;20171;-69
2023/07/17 08:44:02;;;;;;;8.03;4.30;;;27.50;48.20;;;;;;5038244;28;20421;-69
2023/07/17 08:46:28;;;;;;;5.60;4.40;;;27.40;48.10;;;;;;5020960;28;20996;-69
2023/07/17 08:48:56;;;;;;;7.63;4.63;;;27.40;48.10;;;;;;5037662;28;20458;-69
2023/07/17 08:51:23;;;;;;;4.90;4.40;;;27.50;48.10;;;;;;5038871;28;20403;-68
2023/07/17 08:53:54;;;;;;;6.13;4.30;;;27.40;48.00;;;;;;5038278;28;20414;-69
2023/07/17 08:56:20;;;;;;;5.87;4.50;;;27.40;47.90;;;;;;5038266;28;20386;-69
2023/07/17 08:58:46;;;;;;;4.43;4.03;;;27.40;47.90;;;;;;5038312;28;20433;-68
2023/07/17 09:01:12;;;;;;;5.80;4.80;;;27.40;47.90;;;;;;5038659;28;20271;-68
2023/07/17 09:03:38;;;;;;;5.90;5.10;;;27.40;47.90;;;;;;5037823;28;20226;-69
2023/07/17 09:06:04;;;;;;;4.77;4.30;;;27.40;47.90;;;;;;5037464;28;20172;-69
2023/07/17 09:08:31;;;;;;;5.63;4.97;;;27.40;47.80;;;;;;5038021;28;20431;-69
2023/07/17 09:11:04;;;;;;;6.30;5.43;;;27.40;47.70;;;;;;5037064;28;20403;-69
2023/07/17 09:13:38;;;;;;;5.80;4.43;;;27.40;47.70;;;;;;5036992;28;20454;-69
2023/07/17 09:16:17;;;;;;;6.60;4.70;;;27.40;47.70;;;;;;5037675;28;20407;-69
2023/07/17 09:18:43;;;;;;;4.93;4.47;;;27.40;47.70;;;;;;5038177;28;20472;-69
2023/07/17 09:21:14;;;;;;;5.13;4.73;;;27.40;47.60;;;;;;5038232;28;20402;-69
2023/07/17 09:23:44;;;;;;;5.80;5.07;;;27.40;48.20;;;;;;5038463;28;20464;-69
2023/07/17 09:26:12;;;;;;;6.40;4.87;;;27.40;47.60;;;;;;5037912;28;20425;-68
2023/07/17 09:28:50;;;;;;;5.90;4.60;;;27.40;47.50;;;;;;5038112;28;20845;-69
2023/07/17 09:31:36;;;;;;;5.33;4.83;;;27.40;47.50;;;;;;5037808;28;20402;-69
2023/07/17 09:34:10;;;;;;;9.90;5.80;;;27.40;47.50;;;;;;5038428;28;20422;-69
2023/07/17 09:36:36;;;;;;;5.67;4.93;;;27.30;47.50;;;;;;5037970;28;20394;-69
2023/07/17 09:39:05;;;;;;;6.17;5.30;;;27.40;47.50;;;;;;5037834;28;20533;-68
2023/07/17 09:41:30;;;;;;;6.40;4.70;;;27.40;47.50;;;;;;5038003;28;20168;-69
2023/07/17 09:44:03;;;;;;;5.87;5.30;;;27.40;48.00;;;;;;5037934;28;20505;-69
2023/07/17 09:46:30;;;;;;;5.60;5.10;;;27.40;47.40;;;;;;5037209;28;20203;-69
2023/07/17 09:48:57;;;;;;;7.03;5.00;;;27.40;47.40;;;;;;5037863;28;20458;-69
2023/07/17 09:51:23;;;;;;;6.10;5.47;;;27.40;47.40;;;;;;5038047;28;20434;-69
2023/07/17 09:53:49;;;;;;;5.87;5.27;;;27.40;47.30;;;;;;5037573;28;20470;-69
2023/07/17 09:56:16;;;;;;;6.60;5.30;;;27.40;47.30;;;;;;5038120;28;20434;-69
2023/07/17 09:58:47;;;;;;;5.67;5.17;;;27.40;47.20;;;;;;5036954;28;20931;-69
2023/07/17 10:01:18;;;;;;;6.47;5.20;;;27.40;47.20;;;;;;5037900;28;20398;-69
2023/07/17 10:03:48;;;;;;;5.43;4.53;;;27.40;47.10;;;;;;5037762;28;20453;-69
2023/07/17 10:06:18;;;;;;;9.67;5.60;;;27.40;47.10;;;;;;5037760;28;20746;-69
2023/07/17 10:08:50;;;;;;;5.53;4.90;;;27.40;47.10;;;;;;5037608;28;20468;-67
2023/07/17 10:11:17;;;;;;;4.50;4.10;;;27.30;47.00;;;;;;5037048;28;20406;-67
2023/07/17 10:13:44;;;;;;;5.43;4.83;;;27.40;47.10;;;;;;5037182;28;20501;-67
2023/07/17 10:16:13;;;;;;;10.07;5.20;;;27.40;47.10;;;;;;5036591;28;20402;-69
2023/07/17 10:18:54;;;;;;;7.40;4.90;;;27.40;47.00;;;;;;5036732;28;20492;-69
2023/07/17 10:21:21;;;;;;;5.17;4.63;;;27.40;46.90;;;;;;5036879;28;20406;-69
2023/07/17 10:23:49;;;;;;;5.63;4.80;;;27.40;47.00;;;;;;5037176;28;20601;-68
2023/07/17 10:26:20;;;;;;;5.30;4.50;;;27.40;47.00;;;;;;5036134;28;20413;-69
2023/07/17 10:28:53;;;;;;;4.70;4.20;;;27.40;46.90;;;;;;5036308;28;20494;-69
2023/07/17 10:31:23;;;;;;;5.40;4.80;;;27.40;46.90;;;;;;5036331;28;20777;-68
2023/07/17 10:33:58;;;;;;;5.10;4.37;;;27.40;46.90;;;;;;5036077;28;20417;-68
2023/07/17 10:36:41;;;;;;;5.33;4.83;;;27.40;46.90;;;;;;5037240;28;20462;-68
2023/07/17 10:39:07;;;;;;;5.23;4.73;;;27.40;46.80;;;;;;5037086;28;20792;-68
2023/07/17 10:41:36;;;;;;;6.23;4.50;;;27.40;46.80;;;;;;5037086;28;20957;-68
2023/07/17 10:44:03;;;;;;;7.90;4.90;;;27.40;46.80;;;;;;5034757;28;20414;-68
2023/07/17 10:46:33;;;;;;;6.13;5.00;;;27.40;46.80;;;;;;5036628;28;20434;-69
2023/07/17 10:49:15;;;;;;;4.70;4.20;;;27.40;46.80;;;;;;5036296;28;20454;-69
2023/07/17 10:51:48;;;;;;;5.57;4.97;;;27.40;46.80;;;;;;5035746;28;20829;-69
2023/07/17 10:54:15;;;;;;;5.40;4.83;;;27.40;46.70;;;;;;5035705;28;20414;-69
2023/07/17 10:56:43;;;;;;;4.83;4.17;;;27.40;46.70;;;;;;5036414;28;20416;-68
2023/07/17 10:59:09;;;;;;;6.67;4.80;;;27.40;46.60;;;;;;5036285;28;20438;-69
2023/07/17 11:01:34;;;;;;;5.53;4.13;;;27.40;46.60;;;;;;5036387;28;20414;-69
2023/07/17 11:04:00;;;;;;;6.20;4.40;;;27.40;46.60;;;;;;5036490;28;20712;-69
2023/07/17 11:06:27;;;;;;;6.60;4.47;;;27.40;46.50;;;;;;5036535;28;20182;-69
2023/07/17 11:08:54;;;;;;;4.93;4.43;;;27.40;46.50;;;;;;5036595;28;20211;-69
2023/07/17 11:11:20;;;;;;;5.97;4.40;;;27.40;46.40;;;;;;5036014;28;20422;-69
2023/07/17 11:13:47;;;;;;;5.03;4.57;;;27.40;46.40;;;;;;5036338;28;20920;-69
2023/07/17 11:16:12;;;;;;;6.23;4.63;;;27.40;46.30;;;;;;5033202;28;20497;-68
2023/07/17 11:18:48;;;;;;;4.60;4.00;;;27.40;46.20;;;;;;5033032;28;20455;-69
2023/07/17 11:21:15;;;;;;;5.63;4.27;;;27.40;46.20;;;;;;5032677;28;20214;-69
2023/07/17 11:23:52;;;;;;;8.83;4.87;;;27.40;46.10;;;;;;5031722;28;20440;-69
2023/07/17 11:26:25;;;;;;;5.83;4.37;;;27.40;46.20;;;;;;5031953;28;20411;-69
2023/07/17 11:28:54;;;;;;;5.60;4.60;;;27.40;46.20;;;;;;5030676;28;20426;-69
2023/07/17 11:31:25;;;;;;;7.40;4.07;;;27.40;46.70;;;;;;5031771;28;20927;-69
2023/07/17 11:33:53;;;;;;;6.70;4.10;;;27.40;46.10;;;;;;5031831;28;20505;-69
2023/07/17 11:36:19;;;;;;;4.57;4.03;;;27.40;46.20;;;;;;5031841;28;20423;-69
2023/07/17 11:38:44;;;;;;;7.60;5.07;;;27.40;46.10;;;;;;5031365;28;20484;-69
2023/07/17 11:41:10;;;;;;;5.10;4.20;;;27.40;46.10;;;;;;5031634;28;20180;-68
2023/07/17 11:43:36;;;;;;;4.90;4.47;;;27.40;46.20;;;;;;5032427;28;20637;-69
2023/07/17 11:46:06;;;;;;;6.67;4.60;;;27.40;46.20;;;;;;5032475;28;20176;-68
2023/07/17 11:48:40;;;;;;;9.33;5.90;;;27.40;46.20;;;;;;5032656;28;20309;-69
2023/07/17 11:51:06;;;;;;;8.90;5.27;;;27.40;46.20;;;;;;5032236;28;20429;-69
2023/07/17 11:53:33;;;;;;;7.60;5.90;;;27.40;46.20;;;;;;5032270;28;20462;-69
2023/07/17 11:56:01;;;;;;;11.07;6.50;;;27.40;46.20;;;;;;5032537;28;20422;-69
2023/07/17 11:58:29;;;;;;;15.10;8.50;;;27.50;46.20;;;;;;5032543;28;20521;-69
2023/07/17 12:00:56;;;;;;;11.50;7.60;;;27.50;46.20;;;;;;5032720;28;20497;-67
2023/07/17 12:03:22;;;;;;;15.07;8.50;;;27.50;46.30;;;;;;5035625;28;20929;-68
2023/07/17 12:05:48;;;;;;;16.23;8.20;;;27.50;46.20;;;;;;5050660;28;20416;-68
2023/07/17 12:08:14;;;;;;;15.47;8.20;;;27.50;46.20;;;;;;5050189;28;20823;-68
2023/07/17 12:10:40;;;;;;;11.37;7.83;;;27.40;46.10;;;;;;5050969;28;20435;-68
2023/07/17 12:13:07;;;;;;;10.67;7.80;;;27.40;46.20;;;;;;5051525;28;20465;-68
2023/07/17 12:15:33;;;;;;;10.60;7.17;;;27.50;46.20;;;;;;5051593;28;20401;-68
2023/07/17 12:17:59;;;;;;;10.93;7.50;;;27.40;46.10;;;;;;5051766;28;20445;-68
2023/07/17 12:20:29;;;;;;;11.30;6.90;;;27.50;46.10;;;;;;5051556;28;20409;-68
2023/07/17 12:22:56;;;;;;;11.07;6.23;;;27.50;46.10;;;;;;5054182;28;20417;-68
2023/07/17 12:25:22;;;;;;;10.23;6.13;;;27.50;46.50;;;;;;5055273;28;20462;-68
2023/07/17 12:27:48;;;;;;;12.43;6.13;;;27.50;46.10;;;;;;5055195;28;20437;-68
2023/07/17 12:30:22;;;;;;;9.33;6.50;;;27.50;46.20;;;;;;5054976;28;20422;-68
2023/07/17 12:32:48;;;;;;;8.13;5.60;;;27.50;46.10;;;;;;5054989;28;21007;-69
2023/07/17 12:35:13;;;;;;;8.80;6.17;;;27.40;46.10;;;;;;5055138;28;20401;-68
2023/07/17 12:37:39;;;;;;;8.23;5.20;;;27.50;46.20;;;;;;5054846;28;20190;-68
2023/07/17 12:40:05;;;;;;;6.97;5.90;;;27.50;46.30;;;;;;5055297;28;20183;-68
2023/07/17 12:42:31;;;;;;;8.70;5.40;;;27.40;46.20;;;;;;5054876;28;20228;-68